Главная страница
METAR-TAF:

METAR-TAF

Аэропорты :

Сундсвалль-Härnösand, Швеция

широта: 62-32N, долгота: 017-27E, высота над уровнем моря: 4 м

Текущие метеонаблюдения

Эта сводка был подготовлена 43 минут назад, в 11:50 UTC
Ветер 1 Узел от восточно-северо-восточный
Температура -4°C
Влажность 93%
Давление 1026 hPa
Видимость 10 км и более
Сплошная облачность на высоте 3600 фута

METAR: ESNN 191150Z 06001KT 9999 OVC036 M04/M05 Q1026 R16/79//36

Время: 13:33 (12:33 UTC)

Прогноз

Эта сводка был подготовлена 1 час и 3 минут назад, в 11:30 UTC
Прогноз действительный с 19-го 12 UTC до 19-го 21 UTC
Ветер 2 Узел переменных направлений
Видимость 10 км и более
Рассеянная облачность на высоте 4000 фута
Вероятность 40%
С 19-го 13 UTC до 19-го 21 UTC
Видимость: 4000 м
Рассеянная облачность на высоте 1000 фута
небольшой снег

TAF: ESNN 191130Z 1912/1921 VRB02KT 9999 BKN040 PROB40 1913/1921 4000 -SN BKN010

Метеонаблюдения и прогнозы для более 4000 аэропортов (сводки METAR и TAF).

Имеющиеся станции представлены на карте желтыми и красными точками.

Чтобы увидеть название станции, наведите на нее мышь.

Затем щелкните, чтобы увидеть метеонаблюдения и метеопрогнозы.

Управление картой: чтобы увеличить масштаб, щелкните зеленые кнопки с черным крестиком; чтобы уменьшить масштаб, щелкните зеленую кнопку с тире; для просмотра соседних карт щелкайте зеленые стрелки.


METAR-TAF: